createdAt,value
2022-10-31T00:01:37.444Z,98655.44
2022-10-31T00:04:07.432Z,98657.77
2022-10-31T00:06:36.006Z,98657.35
2022-10-31T00:09:05.626Z,98653.46
2022-10-31T00:11:34.138Z,98650.89
2022-10-31T00:14:02.917Z,98654.52
2022-10-31T00:16:34.634Z,98655.69
2022-10-31T00:19:06.701Z,98655.68
2022-10-31T00:21:36.199Z,98657.85
2022-10-31T00:24:06.121Z,98655.04
2022-10-31T00:26:34.694Z,98655.59
2022-10-31T00:29:03.777Z,98656.97
2022-10-31T00:31:32.633Z,98657.81
2022-10-31T00:34:03.250Z,98657.75
2022-10-31T00:36:31.905Z,98662.54
2022-10-31T00:48:02.738Z,98667.29
2022-10-31T00:50:31.931Z,98669.56
2022-10-31T00:53:07.792Z,98671.15
2022-10-31T00:55:36.433Z,98667.57
2022-10-31T00:58:11.812Z,98668.95
2022-10-31T01:00:40.771Z,98666.67
2022-10-31T01:17:22.892Z,98676.42
2022-10-31T01:28:54.610Z,98674.20
2022-10-31T01:31:25.304Z,98675.40
2022-10-31T01:34:18.031Z,98675.20
2022-10-31T01:46:06.343Z,98669.70
2022-10-31T01:54:16.507Z,98672.80
2022-10-31T02:10:58.775Z,98673.43
2022-10-31T02:14:42.562Z,98677.04
2022-10-31T02:17:11.533Z,98677.88
2022-10-31T02:19:52.674Z,98677.66
2022-10-31T02:22:28.732Z,98676.65
2022-10-31T02:25:16.364Z,98671.55
2022-10-31T02:28:03.176Z,98678.52
2022-10-31T02:30:42.058Z,98671.82
2022-10-31T02:33:22.980Z,98674.40
2022-10-31T02:36:01.329Z,98672.40
2022-10-31T02:38:45.258Z,98669.77
2022-10-31T02:41:24.202Z,98668.12
2022-10-31T02:44:06.203Z,98669.41
2022-10-31T02:46:40.120Z,98672.78
2022-10-31T02:49:15.849Z,98677.18
2022-10-31T02:51:45.904Z,98673.36
2022-10-31T02:54:23.490Z,98675.83
2022-10-31T02:56:58.492Z,98681.58
2022-10-31T02:59:32.789Z,98679.80
2022-10-31T03:02:28.625Z,98681.47
2022-10-31T03:05:12.676Z,98683.01
2022-10-31T03:07:48.587Z,98682.08
2022-10-31T03:10:24.596Z,98688.64
2022-10-31T03:13:04.306Z,98692.48
2022-10-31T03:15:35.559Z,98691.15
2022-10-31T03:18:09.040Z,98692.20
2022-10-31T03:20:43.917Z,98690.87
2022-10-31T03:23:16.882Z,98693.20
2022-10-31T03:25:49.219Z,98695.60
2022-10-31T03:28:24.320Z,98694.52
2022-10-31T03:30:54.530Z,98698.12
2022-10-31T03:33:29.670Z,98700.50
2022-10-31T03:36:03.378Z,98703.59
2022-10-31T03:38:39.257Z,98708.38
2022-10-31T03:41:15.093Z,98708.25
2022-10-31T03:43:53.329Z,98710.15
2022-10-31T03:46:22.460Z,98709.94
2022-10-31T03:48:52.291Z,98710.88
2022-10-31T03:51:27.227Z,98710.31
2022-10-31T03:54:02.960Z,98709.47
2022-10-31T03:56:37.123Z,98708.60
2022-10-31T03:59:11.639Z,98710.31
2022-10-31T04:01:45.755Z,98711.29
2022-10-31T04:04:15.333Z,98715.55
2022-10-31T04:06:46.097Z,98716.02
2022-10-31T04:09:17.053Z,98717.48
2022-10-31T04:11:52.252Z,98719.67
2022-10-31T04:14:40.426Z,98720.42
2022-10-31T04:17:13.812Z,98721.34
2022-10-31T04:19:43.073Z,98717.92
2022-10-31T04:22:11.765Z,98718.31
2022-10-31T04:24:41.652Z,98716.71
2022-10-31T04:27:09.995Z,98720.32
2022-10-31T04:29:38.479Z,98720.90
2022-10-31T04:32:07.211Z,98721.71
2022-10-31T04:34:36.061Z,98724.10
2022-10-31T04:37:05.002Z,98722.75
2022-10-31T04:39:34.723Z,98726.44
2022-10-31T04:42:26.174Z,98724.88
2022-10-31T04:44:55.032Z,98725.20
2022-10-31T04:47:23.559Z,98725.09
2022-10-31T04:49:52.107Z,98729.00
2022-10-31T04:52:21.114Z,98732.70
2022-10-31T04:54:49.904Z,98734.00
2022-10-31T04:57:42.623Z,98731.85
2022-10-31T05:00:15.095Z,98732.84
2022-10-31T05:02:47.364Z,98736.17
2022-10-31T05:05:18.247Z,98736.73
2022-10-31T05:07:48.776Z,98733.50
2022-10-31T05:10:20.116Z,98732.70
2022-10-31T05:12:52.862Z,98730.50
2022-10-31T05:15:40.046Z,98731.43
2022-10-31T05:18:29.239Z,98736.16
2022-10-31T05:21:32.904Z,98735.45
2022-10-31T05:24:07.654Z,98734.88
2022-10-31T05:26:36.795Z,98736.64
2022-10-31T05:29:05.517Z,98735.05
2022-10-31T05:31:34.293Z,98735.96
2022-10-31T05:34:03.409Z,98735.66
2022-10-31T05:36:50.499Z,98738.70
2022-10-31T05:39:24.399Z,98741.79
2022-10-31T05:41:56.895Z,98742.89
2022-10-31T05:44:28.573Z,98742.30
2022-10-31T05:47:26.624Z,98745.74
2022-10-31T05:50:42.217Z,98744.73
2022-10-31T05:53:12.657Z,98746.32
2022-10-31T05:55:43.172Z,98749.89
2022-10-31T05:58:16.767Z,98751.10
2022-10-31T06:00:51.599Z,98750.23
2022-10-31T06:03:20.723Z,98750.84
2022-10-31T06:05:55.011Z,98752.29
2022-10-31T06:08:26.372Z,98754.47
2022-10-31T06:10:56.091Z,98753.98
2022-10-31T06:13:37.244Z,98753.67
2022-10-31T06:16:15.200Z,98753.11
2022-10-31T06:18:45.993Z,98754.30
2022-10-31T06:21:17.957Z,98756.27
2022-10-31T06:23:49.968Z,98759.28
2022-10-31T06:26:46.865Z,98760.31
2022-10-31T06:29:15.806Z,98761.25
2022-10-31T06:32:04.981Z,98762.73
2022-10-31T06:34:35.095Z,98762.73
2022-10-31T06:37:03.526Z,98765.17
2022-10-31T06:39:32.351Z,98764.73
2022-10-31T06:42:02.401Z,98766.06
2022-10-31T06:44:31.770Z,98767.98
2022-10-31T06:47:32.416Z,98773.52
2022-10-31T06:50:30.928Z,98772.50
2022-10-31T06:53:00.290Z,98772.96
2022-10-31T06:55:29.144Z,98772.70
2022-10-31T06:58:03.069Z,98772.46
2022-10-31T07:00:32.898Z,98774.23
2022-10-31T07:03:10.382Z,98778.29
2022-10-31T07:05:39.322Z,98778.42
2022-10-31T07:08:11.352Z,98777.60
2022-10-31T07:10:41.435Z,98782.86
2022-10-31T07:13:13.051Z,98785.95
2022-10-31T07:15:43.419Z,98784.23
2022-10-31T07:18:12.847Z,98780.88
2022-10-31T07:20:41.702Z,98782.17
2022-10-31T07:23:11.441Z,98785.57
2022-10-31T07:25:40.219Z,98787.80
2022-10-31T07:33:23.503Z,98786.47
2022-10-31T07:36:40.339Z,98786.02
2022-10-31T07:39:09.030Z,98784.55
2022-10-31T07:41:38.182Z,98783.86
2022-10-31T07:44:06.987Z,98778.60
2022-10-31T07:47:04.889Z,98782.09
2022-10-31T07:50:11.028Z,98782.90
2022-10-31T07:53:01.374Z,98777.88
2022-10-31T07:55:59.965Z,98775.25
2022-10-31T07:58:31.262Z,98778.17
2022-10-31T08:01:01.108Z,98776.08
2022-10-31T08:03:35.759Z,98771.36
2022-10-31T08:06:22.837Z,98774.04
2022-10-31T08:08:51.577Z,98770.95
2022-10-31T08:11:20.210Z,98772.39
2022-10-31T08:13:52.710Z,98780.30
2022-10-31T08:16:23.875Z,98779.06
2022-10-31T08:19:23.087Z,98777.04
2022-10-31T08:21:52.957Z,98772.58
2022-10-31T08:24:21.527Z,98778.08
2022-10-31T08:26:50.312Z,98772.20
2022-10-31T08:29:19.575Z,98768.45
2022-10-31T08:31:48.494Z,98769.95
2022-10-31T08:34:36.000Z,98765.80
2022-10-31T08:37:33.730Z,98755.19
2022-10-31T08:48:59.469Z,98712.98
2022-10-31T09:00:32.446Z,98670.15
2022-10-31T09:04:14.054Z,98665.18
2022-10-31T09:06:50.355Z,98641.48
2022-10-31T09:10:32.070Z,98626.92
2022-10-31T09:17:35.441Z,98580.83
2022-10-31T09:25:02.483Z,98561.91
2022-10-31T09:27:37.674Z,98568.43
2022-10-31T09:30:10.909Z,98568.77
2022-10-31T09:32:46.322Z,98557.23
2022-10-31T09:40:11.539Z,98530.35
2022-10-31T09:47:30.646Z,98543.17
2022-10-31T09:51:50.458Z,98554.66
2022-10-31T09:56:13.604Z,98558.27
2022-10-31T10:04:00.642Z,98562.56
2022-10-31T10:20:35.398Z,98551.66
2022-10-31T10:23:22.206Z,98558.65
2022-10-31T10:25:56.462Z,98562.77
2022-10-31T10:28:30.568Z,98555.23
2022-10-31T10:31:07.767Z,98558.46
2022-10-31T10:33:41.033Z,98552.21
2022-10-31T10:36:17.845Z,98559.47
2022-10-31T10:38:53.142Z,98564.41
2022-10-31T10:41:24.216Z,98571.17
2022-10-31T10:43:54.843Z,98571.17
2022-10-31T10:46:51.065Z,98583.91
2022-10-31T10:49:25.999Z,98580.74
2022-10-31T10:52:19.487Z,98584.71
2022-10-31T10:55:03.929Z,98590.59
2022-10-31T10:57:57.501Z,98595.66
2022-10-31T11:00:28.237Z,98595.83
2022-10-31T11:03:11.062Z,98589.46
2022-10-31T11:05:45.314Z,98595.33
2022-10-31T11:08:27.578Z,98606.52
2022-10-31T11:11:07.580Z,98609.21
2022-10-31T11:13:37.370Z,98603.99
2022-10-31T11:16:09.413Z,98599.35
2022-10-31T11:18:45.606Z,98601.11
2022-10-31T11:21:24.775Z,98604.30
2022-10-31T11:24:04.166Z,98607.36
2022-10-31T11:26:36.229Z,98616.87
2022-10-31T11:29:14.111Z,98621.85
2022-10-31T11:31:44.018Z,98627.48
2022-10-31T11:34:26.517Z,98640.32
2022-10-31T11:36:59.409Z,98660.42
2022-10-31T11:39:27.983Z,98672.88
2022-10-31T11:42:06.203Z,98670.31
2022-10-31T11:44:37.678Z,98675.10
2022-10-31T11:47:12.760Z,98673.94
2022-10-31T11:49:44.076Z,98675.63
2022-10-31T11:52:19.787Z,98672.79
2022-10-31T11:54:52.621Z,98673.30
2022-10-31T11:57:30.375Z,98682.05
2022-10-31T12:00:00.816Z,98684.25
2022-10-31T12:02:29.313Z,98692.40
2022-10-31T12:05:05.409Z,98695.30
2022-10-31T12:07:33.970Z,98697.83
2022-10-31T12:10:13.005Z,98695.97
2022-10-31T12:12:55.218Z,98692.93
2022-10-31T12:15:35.843Z,98691.38
2022-10-31T12:18:39.474Z,98696.98
2022-10-31T12:21:31.400Z,98706.79
2022-10-31T12:24:14.268Z,98713.11
2022-10-31T12:26:53.385Z,98713.98
2022-10-31T12:29:35.228Z,98709.81
2022-10-31T12:32:21.245Z,98700.97
2022-10-31T12:35:18.336Z,98697.70
2022-10-31T12:38:00.063Z,98683.80
2022-10-31T12:40:52.356Z,98668.40
2022-10-31T12:43:36.206Z,98665.39
2022-10-31T12:46:11.740Z,98661.82
2022-10-31T12:48:57.488Z,98655.61
2022-10-31T12:51:34.772Z,98645.34
2022-10-31T12:54:22.233Z,98644.18
2022-10-31T12:57:00.149Z,98636.44
2022-10-31T12:59:34.625Z,98629.70
2022-10-31T13:05:21.914Z,98627.85
2022-10-31T13:07:59.482Z,98624.05
2022-10-31T13:10:36.731Z,98617.60
2022-10-31T13:16:58.497Z,98623.11
2022-10-31T13:19:35.826Z,98626.38
2022-10-31T13:22:12.054Z,98631.36
2022-10-31T13:24:52.741Z,98639.41
2022-10-31T13:27:27.570Z,98637.45
2022-10-31T13:30:06.260Z,98638.04
2022-10-31T13:32:46.874Z,98637.60
2022-10-31T13:35:25.310Z,98640.65
2022-10-31T13:38:07.837Z,98644.17
2022-10-31T13:40:46.529Z,98644.77
2022-10-31T13:43:29.530Z,98647.48
2022-10-31T13:46:01.400Z,98656.48
2022-10-31T13:48:45.640Z,98660.21
2022-10-31T13:51:29.368Z,98664.45
2022-10-31T13:54:03.237Z,98666.63
2022-10-31T13:56:36.894Z,98669.61
2022-10-31T13:59:23.389Z,98672.89
2022-10-31T14:02:00.886Z,98675.91
2022-10-31T14:04:40.957Z,98678.11
2022-10-31T14:07:18.010Z,98684.52
2022-10-31T14:09:58.342Z,98694.73
2022-10-31T14:12:31.114Z,98699.83
2022-10-31T14:15:08.060Z,98710.77
2022-10-31T14:17:48.023Z,98709.19
2022-10-31T14:20:34.908Z,98712.92
2022-10-31T14:23:38.580Z,98716.27
2022-10-31T14:26:37.968Z,98716.98
2022-10-31T14:29:27.594Z,98721.45
2022-10-31T14:32:14.626Z,98722.46
2022-10-31T14:34:54.118Z,98727.05
2022-10-31T14:37:50.799Z,98735.83
2022-10-31T14:40:31.091Z,98738.17
2022-10-31T14:43:11.507Z,98743.59
2022-10-31T14:45:48.116Z,98748.27
2022-10-31T14:48:35.753Z,98750.84
2022-10-31T14:51:17.109Z,98760.36
2022-10-31T14:53:52.393Z,98759.90
2022-10-31T14:56:28.439Z,98758.77
2022-10-31T14:59:03.552Z,98760.64
2022-10-31T15:01:38.224Z,98766.02
2022-10-31T15:04:25.083Z,98769.46
2022-10-31T15:07:04.411Z,98776.78
2022-10-31T15:09:38.830Z,98782.45
2022-10-31T15:12:27.650Z,98785.92
2022-10-31T15:15:00.793Z,98787.95
2022-10-31T15:17:32.884Z,98793.52
2022-10-31T15:20:07.676Z,98794.48
2022-10-31T15:22:39.622Z,98800.31
2022-10-31T15:25:21.790Z,98803.90
2022-10-31T15:27:54.627Z,98805.72
2022-10-31T15:30:29.980Z,98807.72
2022-10-31T15:33:01.826Z,98811.45
2022-10-31T15:35:34.316Z,98809.74
2022-10-31T15:38:06.377Z,98809.73
2022-10-31T15:40:41.285Z,98811.19
2022-10-31T15:43:22.332Z,98819.04
2022-10-31T15:45:54.600Z,98819.06
2022-10-31T15:48:30.766Z,98823.77
2022-10-31T15:51:03.596Z,98832.11
2022-10-31T15:53:43.914Z,98838.33
2022-10-31T15:56:15.895Z,98845.02
2022-10-31T15:58:50.880Z,98847.67
2022-10-31T16:01:28.355Z,98850.45
2022-10-31T16:04:06.813Z,98851.96
2022-10-31T16:06:38.753Z,98856.40
2022-10-31T16:09:26.073Z,98856.78
2022-10-31T16:12:02.279Z,98856.70
2022-10-31T16:14:41.122Z,98856.98
2022-10-31T16:17:17.588Z,98858.34
2022-10-31T16:19:57.358Z,98858.19
2022-10-31T16:22:31.949Z,98860.41
2022-10-31T16:25:10.662Z,98865.23
2022-10-31T16:27:53.184Z,98866.63
2022-10-31T16:30:38.408Z,98864.74
2022-10-31T16:33:25.984Z,98868.16
2022-10-31T16:36:15.785Z,98866.40
2022-10-31T16:38:56.763Z,98863.61
2022-10-31T16:41:29.168Z,98858.72
2022-10-31T16:44:03.810Z,98864.85
2022-10-31T16:46:35.956Z,98862.73
2022-10-31T16:49:12.048Z,98862.33
2022-10-31T16:51:44.690Z,98862.91
2022-10-31T16:54:16.940Z,98857.41
2022-10-31T16:56:49.194Z,98850.35
2022-10-31T16:59:21.262Z,98848.95
2022-10-31T17:01:54.723Z,98848.94
2022-10-31T17:04:27.413Z,98850.95
2022-10-31T17:06:59.354Z,98848.60
2022-10-31T17:09:31.435Z,98845.23
2022-10-31T17:12:03.469Z,98839.08
2022-10-31T17:14:36.480Z,98841.50
2022-10-31T17:17:09.403Z,98841.54
2022-10-31T17:19:41.595Z,98836.58
2022-10-31T17:22:14.781Z,98834.94
2022-10-31T17:24:46.939Z,98831.36
2022-10-31T17:27:19.204Z,98831.61
2022-10-31T17:29:51.171Z,98833.50
2022-10-31T17:32:23.190Z,98826.10
2022-10-31T17:34:55.285Z,98828.21
2022-10-31T17:37:27.180Z,98834.30
2022-10-31T17:39:59.126Z,98839.55
2022-10-31T17:42:31.461Z,98838.85
2022-10-31T17:45:03.596Z,98835.04
2022-10-31T17:47:36.666Z,98830.13
2022-10-31T17:50:12.831Z,98829.52
2022-10-31T17:52:46.113Z,98827.88
2022-10-31T17:55:19.177Z,98826.18
2022-10-31T17:57:52.419Z,98826.19
2022-10-31T18:00:24.977Z,98829.65
2022-10-31T18:02:56.988Z,98828.89
2022-10-31T18:05:29.624Z,98826.95
2022-10-31T18:08:04.221Z,98826.60
2022-10-31T18:10:37.059Z,98824.14
2022-10-31T18:13:08.994Z,98824.19
2022-10-31T18:15:44.261Z,98823.73
2022-10-31T18:18:16.437Z,98822.30
2022-10-31T18:20:48.442Z,98823.93
2022-10-31T18:23:20.473Z,98820.11
2022-10-31T18:25:52.465Z,98821.18
2022-10-31T18:28:24.411Z,98818.23
2022-10-31T18:30:59.180Z,98815.17
2022-10-31T18:33:31.466Z,98816.00
2022-10-31T18:36:08.860Z,98811.72
2022-10-31T18:38:44.677Z,98811.22
2022-10-31T18:41:17.014Z,98806.30
2022-10-31T18:43:52.139Z,98800.98
2022-10-31T18:46:24.308Z,98795.82
2022-10-31T18:48:56.490Z,98792.90
2022-10-31T18:51:28.827Z,98790.61
2022-10-31T18:54:02.413Z,98790.68
2022-10-31T18:56:34.367Z,98793.80
2022-10-31T18:59:06.320Z,98792.75
2022-10-31T19:01:38.719Z,98787.65
2022-10-31T19:04:12.088Z,98782.99
2022-10-31T19:06:44.140Z,98776.08
2022-10-31T19:09:16.121Z,98769.23
2022-10-31T19:11:48.007Z,98766.48
2022-10-31T19:14:20.350Z,98763.93
2022-10-31T19:16:52.668Z,98766.80
2022-10-31T19:19:25.215Z,98770.70
2022-10-31T19:21:59.776Z,98769.92
2022-10-31T19:24:31.750Z,98764.27
2022-10-31T19:27:04.194Z,98760.30
2022-10-31T19:29:36.209Z,98764.05
2022-10-31T19:32:08.747Z,98764.36
2022-10-31T19:34:40.778Z,98761.37
2022-10-31T19:37:13.027Z,98755.52
2022-10-31T19:39:45.035Z,98756.65
2022-10-31T19:42:16.940Z,98756.91
2022-10-31T19:44:48.989Z,98752.84
2022-10-31T19:47:20.862Z,98755.52
2022-10-31T19:49:52.807Z,98753.80
2022-10-31T19:52:24.943Z,98752.66
2022-10-31T19:54:56.904Z,98752.59
2022-10-31T19:57:56.200Z,98751.20
2022-10-31T20:00:22.048Z,98752.11
2022-10-31T20:02:54.308Z,98751.53
2022-10-31T20:05:26.393Z,98753.83
2022-10-31T20:07:58.449Z,98755.08
2022-10-31T20:10:30.385Z,98753.73
2022-10-31T20:13:02.586Z,98749.94
2022-10-31T20:15:36.424Z,98747.27
2022-10-31T20:18:08.486Z,98747.42
2022-10-31T20:20:40.530Z,98745.40
2022-10-31T20:23:12.704Z,98744.45
2022-10-31T20:25:51.089Z,98743.62
2022-10-31T20:28:23.223Z,98742.34
2022-10-31T20:30:58.160Z,98743.35
2022-10-31T20:33:30.400Z,98737.91
2022-10-31T20:36:05.958Z,98735.59
2022-10-31T20:38:40.382Z,98733.82
2022-10-31T20:41:13.405Z,98729.70
2022-10-31T20:43:45.809Z,98732.61
2022-10-31T20:46:19.375Z,98728.52
2022-10-31T20:48:51.580Z,98725.55
2022-10-31T20:51:25.419Z,98727.16
2022-10-31T20:53:59.182Z,98723.24
2022-10-31T20:56:31.387Z,98721.71
2022-10-31T20:59:03.288Z,98717.45
2022-10-31T21:01:38.515Z,98712.50
2022-10-31T21:04:13.729Z,98711.55
2022-10-31T21:06:49.455Z,98713.11
2022-10-31T21:09:21.794Z,98712.07
2022-10-31T21:11:53.831Z,98712.79
2022-10-31T21:14:26.469Z,98706.83
2022-10-31T21:16:58.335Z,98701.48
2022-10-31T21:19:30.321Z,98697.80
2022-10-31T21:22:02.249Z,98693.95
2022-10-31T21:24:34.212Z,98693.79
2022-10-31T21:27:09.959Z,98690.88
2022-10-31T21:29:44.443Z,98688.73
2022-10-31T21:32:16.698Z,98687.56
2022-10-31T21:34:51.176Z,98685.95
2022-10-31T21:37:23.131Z,98687.77
2022-10-31T21:39:55.286Z,98685.34
2022-10-31T21:42:27.297Z,98683.10
2022-10-31T21:45:00.561Z,98679.59
2022-10-31T21:47:32.418Z,98674.02
2022-10-31T21:50:04.395Z,98669.30
2022-10-31T21:52:36.366Z,98667.13
2022-10-31T21:55:09.562Z,98670.65
2022-10-31T21:57:42.697Z,98667.27
2022-10-31T22:00:16.051Z,98665.38
2022-10-31T22:02:47.930Z,98662.11
2022-10-31T22:05:20.231Z,98659.99
2022-10-31T22:07:52.082Z,98657.35
2022-10-31T22:10:24.422Z,98653.94
2022-10-31T22:12:56.326Z,98654.11
2022-10-31T22:15:28.595Z,98655.92
2022-10-31T22:18:00.978Z,98651.81
2022-10-31T22:20:33.357Z,98642.64
2022-10-31T22:23:07.665Z,98639.64
2022-10-31T22:25:39.889Z,98641.63
2022-10-31T22:28:11.828Z,98638.17
2022-10-31T22:30:43.777Z,98637.42
2022-10-31T22:33:16.166Z,98635.80
2022-10-31T22:35:48.114Z,98636.83
2022-10-31T22:38:20.024Z,98633.06
2022-10-31T22:40:52.086Z,98628.04
2022-10-31T22:43:24.482Z,98627.39
2022-10-31T22:46:03.568Z,98621.91
2022-10-31T22:48:38.951Z,98625.21
2022-10-31T22:51:13.909Z,98621.23
2022-10-31T22:53:46.249Z,98625.16
2022-10-31T22:56:19.555Z,98623.73
2022-10-31T22:58:54.414Z,98622.33
2022-10-31T23:01:30.279Z,98621.97
2022-10-31T23:04:02.776Z,98625.34
2022-10-31T23:09:49.380Z,98627.58
2022-10-31T23:12:39.098Z,98620.98
2022-10-31T23:15:12.016Z,98624.43
2022-10-31T23:17:43.936Z,98621.10
2022-10-31T23:20:15.919Z,98620.04
2022-10-31T23:22:47.875Z,98616.32
2022-10-31T23:25:37.503Z,98610.40
2022-10-31T23:28:09.557Z,98603.76
2022-10-31T23:30:41.814Z,98598.01
2022-10-31T23:33:13.661Z,98595.45
2022-10-31T23:35:47.457Z,98598.35
2022-10-31T23:38:19.323Z,98597.04
2022-10-31T23:40:51.144Z,98594.16
2022-10-31T23:43:23.075Z,98596.31
2022-10-31T23:45:55.452Z,98597.06
2022-10-31T23:48:28.072Z,98602.01
2022-10-31T23:51:00.103Z,98599.83
2022-10-31T23:53:32.419Z,98597.04
2022-10-31T23:56:04.378Z,98596.90
2022-10-31T23:58:37.624Z,98594.31
